sensor_id;sensor_type;location;lat;lon;timestamp;pressure;altitude;pressure_sealevel;temperature;humidity
77410;BME280;66481;51.332;22.804;2024-01-07T00:02:10;99272.00;;;-5.19;88.55
77410;BME280;66481;51.332;22.804;2024-01-07T00:06:13;99278.03;;;-5.21;88.68
77410;BME280;66481;51.332;22.804;2024-01-07T00:10:17;99283.22;;;-5.23;88.09
77410;BME280;66481;51.332;22.804;2024-01-07T00:14:18;99287.59;;;-5.28;88.34
77410;BME280;66481;51.332;22.804;2024-01-07T00:18:20;99276.38;;;-5.24;88.42
77410;BME280;66481;51.332;22.804;2024-01-07T00:22:21;99286.72;;;-5.27;88.33
77410;BME280;66481;51.332;22.804;2024-01-07T00:26:23;99288.38;;;-5.24;89.08
77410;BME280;66481;51.332;22.804;2024-01-07T00:30:24;99294.50;;;-5.30;88.29
77410;BME280;66481;51.332;22.804;2024-01-07T00:34:34;99296.25;;;-5.31;88.15
77410;BME280;66481;51.332;22.804;2024-01-07T00:38:35;99297.13;;;-5.33;89.09
77410;BME280;66481;51.332;22.804;2024-01-07T00:42:37;99310.09;;;-5.36;88.06
77410;BME280;66481;51.332;22.804;2024-01-07T00:46:38;99293.84;;;-5.41;88.92
77410;BME280;66481;51.332;22.804;2024-01-07T00:50:39;99287.00;;;-5.44;88.42
77410;BME280;66481;51.332;22.804;2024-01-07T00:54:41;99299.03;;;-5.44;89.06
77410;BME280;66481;51.332;22.804;2024-01-07T00:58:43;99280.25;;;-5.53;89.75
77410;BME280;66481;51.332;22.804;2024-01-07T01:02:45;99291.41;;;-5.52;88.91
77410;BME280;66481;51.332;22.804;2024-01-07T01:06:46;99292.38;;;-5.58;90.34
77410;BME280;66481;51.332;22.804;2024-01-07T01:10:47;99277.81;;;-5.60;89.91
77410;BME280;66481;51.332;22.804;2024-01-07T01:14:49;99294.13;;;-5.60;89.05
77410;BME280;66481;51.332;22.804;2024-01-07T01:18:54;99294.94;;;-5.58;89.48
77410;BME280;66481;51.332;22.804;2024-01-07T01:22:58;99297.53;;;-5.59;89.41
77410;BME280;66481;51.332;22.804;2024-01-07T01:27:02;99289.84;;;-5.62;89.80
77410;BME280;66481;51.332;22.804;2024-01-07T01:31:03;99290.72;;;-5.62;90.41
77410;BME280;66481;51.332;22.804;2024-01-07T01:35:05;99291.56;;;-5.61;89.62
77410;BME280;66481;51.332;22.804;2024-01-07T01:39:07;99288.16;;;-5.63;91.01
77410;BME280;66481;51.332;22.804;2024-01-07T01:43:08;99283.81;;;-5.61;90.91
77410;BME280;66481;51.332;22.804;2024-01-07T01:47:10;99280.38;;;-5.59;89.90
77410;BME280;66481;51.332;22.804;2024-01-07T01:51:11;99288.09;;;-5.59;89.56
77410;BME280;66481;51.332;22.804;2024-01-07T01:55:13;99281.22;;;-5.60;90.13
77410;BME280;66481;51.332;22.804;2024-01-07T01:59:15;99275.22;;;-5.59;90.15
77410;BME280;66481;51.332;22.804;2024-01-07T02:03:18;99268.34;;;-5.60;89.59
77410;BME280;66481;51.332;22.804;2024-01-07T02:07:20;99264.97;;;-5.65;89.25
77410;BME280;66481;51.332;22.804;2024-01-07T02:11:22;99263.34;;;-5.69;90.18
77410;BME280;66481;51.332;22.804;2024-01-07T02:15:24;99266.75;;;-5.67;89.63
77410;BME280;66481;51.332;22.804;2024-01-07T02:19:26;99266.81;;;-5.72;89.96
77410;BME280;66481;51.332;22.804;2024-01-07T02:23:27;99258.13;;;-5.68;90.47
77410;BME280;66481;51.332;22.804;2024-01-07T02:27:28;99258.22;;;-5.72;89.30
77410;BME280;66481;51.332;22.804;2024-01-07T02:31:29;99259.91;;;-5.70;89.99
77410;BME280;66481;51.332;22.804;2024-01-07T02:35:31;99252.97;;;-5.68;89.42
77410;BME280;66481;51.332;22.804;2024-01-07T02:39:32;99271.09;;;-5.71;89.65
77410;BME280;66481;51.332;22.804;2024-01-07T02:43:34;99260.00;;;-5.76;90.26
77410;BME280;66481;51.332;22.804;2024-01-07T02:47:35;99241.97;;;-5.76;89.69
77410;BME280;66481;51.332;22.804;2024-01-07T02:51:36;99263.47;;;-5.78;90.10
77410;BME280;66481;51.332;22.804;2024-01-07T02:55:38;99261.69;;;-5.75;90.07
77410;BME280;66481;51.332;22.804;2024-01-07T02:59:40;99272.88;;;-5.76;90.49
77410;BME280;66481;51.332;22.804;2024-01-07T03:03:41;99261.63;;;-5.70;89.69
77410;BME280;66481;51.332;22.804;2024-01-07T03:07:42;99263.41;;;-5.74;88.95
77410;BME280;66481;51.332;22.804;2024-01-07T03:11:44;99255.72;;;-5.77;89.75
77410;BME280;66481;51.332;22.804;2024-01-07T03:15:45;99256.53;;;-5.75;88.89
77410;BME280;66481;51.332;22.804;2024-01-07T03:19:46;99251.50;;;-5.81;89.07
77410;BME280;66481;51.332;22.804;2024-01-07T03:23:48;99261.69;;;-5.76;88.59
77410;BME280;66481;51.332;22.804;2024-01-07T03:27:49;99240.28;;;-5.78;89.00
77410;BME280;66481;51.332;22.804;2024-01-07T03:31:50;99256.66;;;-5.82;89.33
77410;BME280;66481;51.332;22.804;2024-01-07T03:35:53;99254.84;;;-5.76;87.95
77410;BME280;66481;51.332;22.804;2024-01-07T03:39:55;99244.59;;;-5.79;87.81
77410;BME280;66481;51.332;22.804;2024-01-07T03:43:56;99250.69;;;-5.84;88.17
77410;BME280;66481;51.332;22.804;2024-01-07T03:47:57;99253.25;;;-5.83;88.94
77410;BME280;66481;51.332;22.804;2024-01-07T03:51:59;99261.84;;;-5.86;88.33
77410;BME280;66481;51.332;22.804;2024-01-07T03:56:00;99255.06;;;-5.91;88.26
77410;BME280;66481;51.332;22.804;2024-01-07T04:00:02;99245.66;;;-5.94;88.44
77410;BME280;66481;51.332;22.804;2024-01-07T04:04:03;99241.47;;;-5.99;89.15
77410;BME280;66481;51.332;22.804;2024-01-07T04:08:05;99259.53;;;-6.01;88.48
77410;BME280;66481;51.332;22.804;2024-01-07T04:12:06;99262.06;;;-5.98;89.46
77410;BME280;66481;51.332;22.804;2024-01-07T04:16:16;99285.28;;;-6.01;89.95
77410;BME280;66481;51.332;22.804;2024-01-07T04:20:17;99270.72;;;-6.03;89.20
77410;BME280;66481;51.332;22.804;2024-01-07T04:24:19;99272.53;;;-6.10;89.80
77410;BME280;66481;51.332;22.804;2024-01-07T04:28:20;99278.66;;;-6.19;89.38
77410;BME280;66481;51.332;22.804;2024-01-07T04:32:21;99285.47;;;-6.16;91.08
77410;BME280;66481;51.332;22.804;2024-01-07T04:36:22;99300.94;;;-6.18;91.23
77410;BME280;66481;51.332;22.804;2024-01-07T04:40:23;99306.06;;;-6.15;90.69
77410;BME280;66481;51.332;22.804;2024-01-07T04:44:25;99299.31;;;-6.24;91.13
77410;BME280;66481;51.332;22.804;2024-01-07T04:48:26;99303.69;;;-6.33;92.03
77410;BME280;66481;51.332;22.804;2024-01-07T04:52:27;99314.91;;;-6.36;92.28
77410;BME280;66481;51.332;22.804;2024-01-07T04:56:28;99329.47;;;-6.35;92.00
77410;BME280;66481;51.332;22.804;2024-01-07T05:00:30;99315.75;;;-6.37;92.62
77410;BME280;66481;51.332;22.804;2024-01-07T05:04:32;99323.41;;;-6.29;93.11
77410;BME280;66481;51.332;22.804;2024-01-07T05:08:33;99319.13;;;-6.33;91.90
77410;BME280;66481;51.332;22.804;2024-01-07T05:12:34;99317.50;;;-6.40;91.68
77410;BME280;66481;51.332;22.804;2024-01-07T05:16:35;99334.59;;;-6.33;92.38
77410;BME280;66481;51.332;22.804;2024-01-07T05:20:37;99337.97;;;-6.28;92.08
77410;BME280;66481;51.332;22.804;2024-01-07T05:24:39;99322.59;;;-6.33;91.75
77410;BME280;66481;51.332;22.804;2024-01-07T05:28:40;99344.84;;;-6.29;91.89
77410;BME280;66481;51.332;22.804;2024-01-07T05:32:41;99342.38;;;-6.38;91.62
77410;BME280;66481;51.332;22.804;2024-01-07T05:36:42;99344.13;;;-6.41;91.91
77410;BME280;66481;51.332;22.804;2024-01-07T05:40:43;99321.84;;;-6.44;91.55
77410;BME280;66481;51.332;22.804;2024-01-07T05:44:44;99345.78;;;-6.34;90.87
77410;BME280;66481;51.332;22.804;2024-01-07T05:48:47;99335.59;;;-6.44;90.69
77410;BME280;66481;51.332;22.804;2024-01-07T05:52:49;99332.22;;;-6.50;90.05
77410;BME280;66481;51.332;22.804;2024-01-07T05:56:51;99345.06;;;-6.49;90.69
77410;BME280;66481;51.332;22.804;2024-01-07T06:00:52;99329.75;;;-6.61;90.85
77410;BME280;66481;51.332;22.804;2024-01-07T06:04:53;99335.88;;;-6.73;90.53
77410;BME280;66481;51.332;22.804;2024-01-07T06:08:55;99347.84;;;-6.70;90.16
77410;BME280;66481;51.332;22.804;2024-01-07T06:12:56;99349.50;;;-6.66;89.97
77410;BME280;66481;51.332;22.804;2024-01-07T06:16:57;99329.91;;;-6.76;89.91
77410;BME280;66481;51.332;22.804;2024-01-07T06:20:58;99340.25;;;-6.83;89.93
77410;BME280;66481;51.332;22.804;2024-01-07T06:25:00;99336.03;;;-6.88;89.48
77410;BME280;66481;51.332;22.804;2024-01-07T06:29:01;99338.63;;;-6.90;89.62
77410;BME280;66481;51.332;22.804;2024-01-07T06:33:04;99359.13;;;-6.85;90.09
77410;BME280;66481;51.332;22.804;2024-01-07T06:37:06;99357.47;;;-6.92;89.88
77410;BME280;66481;51.332;22.804;2024-01-07T06:41:11;99376.38;;;-6.96;89.99
77410;BME280;66481;51.332;22.804;2024-01-07T06:45:13;99372.13;;;-7.01;90.23
77410;BME280;66481;51.332;22.804;2024-01-07T06:49:15;99361.91;;;-7.11;89.58
77410;BME280;66481;51.332;22.804;2024-01-07T06:53:18;99356.00;;;-7.21;89.77
77410;BME280;66481;51.332;22.804;2024-01-07T06:57:20;99358.53;;;-7.18;89.82
77410;BME280;66481;51.332;22.804;2024-01-07T07:01:23;99374.81;;;-7.14;90.09
77410;BME280;66481;51.332;22.804;2024-01-07T07:05:24;99387.63;;;-7.11;90.82
77410;BME280;66481;51.332;22.804;2024-01-07T07:09:25;99378.25;;;-7.15;90.24
77410;BME280;66481;51.332;22.804;2024-01-07T07:13:26;99387.69;;;-7.19;90.35
77410;BME280;66481;51.332;22.804;2024-01-07T07:17:28;99391.94;;;-7.15;90.49
77410;BME280;66481;51.332;22.804;2024-01-07T07:21:29;99392.03;;;-7.27;90.29
77410;BME280;66481;51.332;22.804;2024-01-07T07:25:30;99382.66;;;-7.36;89.84
77410;BME280;66481;51.332;22.804;2024-01-07T07:29:31;99388.69;;;-7.39;90.37
77410;BME280;66481;51.332;22.804;2024-01-07T07:33:32;99398.09;;;-7.38;90.76
77410;BME280;66481;51.332;22.804;2024-01-07T07:37:33;99399.84;;;-7.44;90.63
77410;BME280;66481;51.332;22.804;2024-01-07T07:41:34;99396.50;;;-7.54;91.26
77410;BME280;66481;51.332;22.804;2024-01-07T07:45:36;99415.25;;;-7.46;91.25
77410;BME280;66481;51.332;22.804;2024-01-07T07:49:38;99396.50;;;-7.54;91.17
77410;BME280;66481;51.332;22.804;2024-01-07T07:53:41;99431.63;;;-7.61;91.71
77410;BME280;66481;51.332;22.804;2024-01-07T07:57:42;99434.22;;;-7.68;91.72
77410;BME280;66481;51.332;22.804;2024-01-07T08:01:45;99434.22;;;-7.67;92.09
77410;BME280;66481;51.332;22.804;2024-01-07T08:05:46;99443.66;;;-7.69;92.24
77410;BME280;66481;51.332;22.804;2024-01-07T08:09:48;99451.31;;;-7.60;93.13
77410;BME280;66481;51.332;22.804;2024-01-07T08:13:49;99439.34;;;-7.68;92.57
77410;BME280;66481;51.332;22.804;2024-01-07T08:17:50;99461.63;;;-7.64;93.03
77410;BME280;66481;51.332;22.804;2024-01-07T08:21:52;99455.66;;;-7.71;92.76
77410;BME280;66481;51.332;22.804;2024-01-07T08:25:53;99471.91;;;-7.66;93.45
77410;BME280;66481;51.332;22.804;2024-01-07T08:29:55;99472.78;;;-7.76;93.96
77410;BME280;66481;51.332;22.804;2024-01-07T08:33:56;99497.56;;;-7.66;94.58
77410;BME280;66481;51.332;22.804;2024-01-07T08:37:58;99483.06;;;-7.71;94.56
77410;BME280;66481;51.332;22.804;2024-01-07T08:42:00;99477.06;;;-7.77;94.10
77410;BME280;66481;51.332;22.804;2024-01-07T08:46:03;99507.00;;;-7.72;94.12
77410;BME280;66481;51.332;22.804;2024-01-07T08:50:06;99507.00;;;-7.76;94.09
77410;BME280;66481;51.332;22.804;2024-01-07T08:54:08;99495.06;;;-7.83;93.78
77410;BME280;66481;51.332;22.804;2024-01-07T08:58:10;99503.63;;;-7.88;93.69
77410;BME280;66481;51.332;22.804;2024-01-07T09:02:11;99505.31;;;-7.81;94.26
77410;BME280;66481;51.332;22.804;2024-01-07T09:06:12;99502.75;;;-7.77;93.56
77410;BME280;66481;51.332;22.804;2024-01-07T09:10:15;99501.00;;;-7.70;94.06
77410;BME280;66481;51.332;22.804;2024-01-07T09:14:16;99498.41;;;-7.62;94.28
77410;BME280;66481;51.332;22.804;2024-01-07T09:18:18;99496.69;;;-7.54;93.20
77410;BME280;66481;51.332;22.804;2024-01-07T09:22:20;99493.31;;;-7.71;92.76
77410;BME280;66481;51.332;22.804;2024-01-07T09:26:25;99490.75;;;-7.78;92.72
77410;BME280;66481;51.332;22.804;2024-01-07T09:30:26;99477.03;;;-7.73;92.30
77410;BME280;66481;51.332;22.804;2024-01-07T09:34:27;99477.88;;;-7.70;92.43
77410;BME280;66481;51.332;22.804;2024-01-07T09:38:32;99472.72;;;-7.59;91.77
77410;BME280;66481;51.332;22.804;2024-01-07T09:42:33;99488.94;;;-7.51;92.47
77410;BME280;66481;51.332;22.804;2024-01-07T09:46:37;99489.75;;;-7.35;92.09
77410;BME280;66481;51.332;22.804;2024-01-07T09:50:42;99483.66;;;-7.22;92.21
77410;BME280;66481;51.332;22.804;2024-01-07T09:54:49;99469.97;;;-7.25;91.94
77410;BME280;66481;51.332;22.804;2024-01-07T09:58:52;99456.31;;;-7.32;91.59
77410;BME280;66481;51.332;22.804;2024-01-07T10:02:54;99453.81;;;-7.44;91.32
77410;BME280;66481;51.332;22.804;2024-01-07T10:06:57;99459.81;;;-7.44;91.91
77410;BME280;66481;51.332;22.804;2024-01-07T10:10:58;99453.78;;;-7.43;91.29
77410;BME280;66481;51.332;22.804;2024-01-07T10:15:02;99452.09;;;-7.42;91.47
77410;BME280;66481;51.332;22.804;2024-01-07T10:19:04;99453.84;;;-7.55;92.17
77410;BME280;66481;51.332;22.804;2024-01-07T10:23:05;99447.88;;;-7.57;91.43
77410;BME280;66481;51.332;22.804;2024-01-07T10:27:09;99461.50;;;-7.44;91.68
77410;BME280;66481;51.332;22.804;2024-01-07T10:31:12;99441.91;;;-7.64;91.44
77410;BME280;66481;51.332;22.804;2024-01-07T10:35:16;99444.47;;;-7.62;92.18
77410;BME280;66481;51.332;22.804;2024-01-07T10:39:19;99443.59;;;-7.58;92.23
77410;BME280;66481;51.332;22.804;2024-01-07T10:43:23;99456.44;;;-7.53;91.91
77410;BME280;66481;51.332;22.804;2024-01-07T10:47:31;99460.72;;;-7.54;91.90
77410;BME280;66481;51.332;22.804;2024-01-07T10:51:34;99466.63;;;-7.38;91.91
77410;BME280;66481;51.332;22.804;2024-01-07T10:55:37;99461.56;;;-7.50;91.89
77410;BME280;66481;51.332;22.804;2024-01-07T10:59:41;99469.19;;;-7.37;92.34
77410;BME280;66481;51.332;22.804;2024-01-07T11:03:51;99471.72;;;-7.32;92.18
77410;BME280;66481;51.332;22.804;2024-01-07T11:08:25;99466.56;;;-7.29;92.11
77410;BME280;66481;51.332;22.804;2024-01-07T11:12:30;99461.50;;;-7.41;92.18
77410;BME280;66481;51.332;22.804;2024-01-07T11:16:43;99456.38;;;-7.44;92.25
77410;BME280;66481;51.332;22.804;2024-01-07T11:20:46;99466.69;;;-7.47;92.19
77410;BME280;66481;51.332;22.804;2024-01-07T11:24:48;99463.28;;;-7.56;92.37
77410;BME280;66481;51.332;22.804;2024-01-07T11:28:55;99476.97;;;-7.53;92.27
77410;BME280;66481;51.332;22.804;2024-01-07T11:33:01;99477.88;;;-7.58;92.51
77410;BME280;66481;51.332;22.804;2024-01-07T11:37:07;99494.06;;;-7.43;92.58
77410;BME280;66481;51.332;22.804;2024-01-07T11:41:14;99495.78;;;-7.44;92.58
77410;BME280;66481;51.332;22.804;2024-01-07T11:45:17;99480.25;;;-7.25;92.26
77410;BME280;66481;51.332;22.804;2024-01-07T11:49:19;99475.03;;;-7.13;91.73
77410;BME280;66481;51.332;22.804;2024-01-07T11:53:20;99446.84;;;-7.24;90.84
77410;BME280;66481;51.332;22.804;2024-01-07T11:57:22;99438.34;;;-7.35;89.44
77410;BME280;66481;51.332;22.804;2024-01-07T12:01:24;99436.69;;;-7.48;90.67
77410;BME280;66481;51.332;22.804;2024-01-07T12:05:30;99435.78;;;-7.40;90.46
77410;BME280;66481;51.332;22.804;2024-01-07T12:09:32;99450.31;;;-7.34;91.02
77410;BME280;66481;51.332;22.804;2024-01-07T12:13:35;99449.53;;;-7.42;91.14
77410;BME280;66481;51.332;22.804;2024-01-07T12:17:40;99446.13;;;-7.50;91.04
77410;BME280;66481;51.332;22.804;2024-01-07T12:21:42;99453.84;;;-7.50;91.46
77410;BME280;66481;51.332;22.804;2024-01-07T12:25:45;99455.56;;;-7.54;91.53
77410;BME280;66481;51.332;22.804;2024-01-07T12:29:56;99463.22;;;-7.43;91.21
77410;BME280;66481;51.332;22.804;2024-01-07T12:33:57;99467.53;;;-7.54;91.33
77410;BME280;66481;51.332;22.804;2024-01-07T12:38:01;99460.69;;;-7.51;91.50
77410;BME280;66481;51.332;22.804;2024-01-07T12:42:04;99456.53;;;-7.77;91.30
77410;BME280;66481;51.332;22.804;2024-01-07T12:46:07;99448.81;;;-7.80;91.14
77410;BME280;66481;51.332;22.804;2024-01-07T12:50:10;99458.25;;;-7.83;91.54
77410;BME280;66481;51.332;22.804;2024-01-07T12:54:11;99465.06;;;-7.73;91.31
77410;BME280;66481;51.332;22.804;2024-01-07T12:58:13;99464.19;;;-7.70;90.87
77410;BME280;66481;51.332;22.804;2024-01-07T13:02:14;99457.38;;;-7.71;90.75
77410;BME280;66481;51.332;22.804;2024-01-07T13:06:15;99458.22;;;-7.71;91.23
77410;BME280;66481;51.332;22.804;2024-01-07T13:10:17;99468.44;;;-7.65;90.66
77410;BME280;66481;51.332;22.804;2024-01-07T13:14:20;99471.88;;;-7.64;91.07
77410;BME280;66481;51.332;22.804;2024-01-07T13:18:22;99482.94;;;-7.50;90.57
77410;BME280;66481;51.332;22.804;2024-01-07T13:22:24;99476.16;;;-7.63;90.52
77410;BME280;66481;51.332;22.804;2024-01-07T13:26:27;99468.44;;;-7.56;90.79
77410;BME280;66481;51.332;22.804;2024-01-07T13:30:29;99468.50;;;-7.71;89.77
77410;BME280;66481;51.332;22.804;2024-01-07T13:34:31;99484.72;;;-7.61;89.59
77410;BME280;66481;51.332;22.804;2024-01-07T13:38:32;99492.41;;;-7.60;89.48
77410;BME280;66481;51.332;22.804;2024-01-07T13:42:35;99494.97;;;-7.58;88.99
77410;BME280;66481;51.332;22.804;2024-01-07T13:46:37;99470.22;;;-7.76;88.52
77410;BME280;66481;51.332;22.804;2024-01-07T13:50:41;99488.19;;;-7.75;88.27
77410;BME280;66481;51.332;22.804;2024-01-07T13:54:43;99494.19;;;-7.77;87.31
77410;BME280;66481;51.332;22.804;2024-01-07T13:58:44;99489.06;;;-7.82;87.66
77410;BME280;66481;51.332;22.804;2024-01-07T14:02:48;99491.69;;;-8.00;87.17
77410;BME280;66481;51.332;22.804;2024-01-07T14:06:57;99484.84;;;-8.12;87.17
77410;BME280;66481;51.332;22.804;2024-01-07T14:10:59;99491.72;;;-8.13;86.65
77410;BME280;66481;51.332;22.804;2024-01-07T14:15:05;99490.84;;;-8.21;86.32
77410;BME280;66481;51.332;22.804;2024-01-07T14:19:07;99474.59;;;-8.31;86.81
77410;BME280;66481;51.332;22.804;2024-01-07T14:23:09;99467.78;;;-8.35;86.80
77410;BME280;66481;51.332;22.804;2024-01-07T14:27:13;99494.31;;;-8.40;86.03
77410;BME280;66481;51.332;22.804;2024-01-07T14:31:15;99502.00;;;-8.42;87.34
77410;BME280;66481;51.332;22.804;2024-01-07T14:35:17;99514.84;;;-8.49;87.08
77410;BME280;66481;51.332;22.804;2024-01-07T14:39:19;99514.88;;;-8.66;87.53
77410;BME280;66481;51.332;22.804;2024-01-07T14:43:43;99519.97;;;-8.74;87.67
77410;BME280;66481;51.332;22.804;2024-01-07T14:48:07;99505.44;;;-8.87;87.98
77410;BME280;66481;51.332;22.804;2024-01-07T14:52:09;99502.84;;;-9.00;87.61
77410;BME280;66481;51.332;22.804;2024-01-07T14:56:11;99514.78;;;-9.02;87.80
77410;BME280;66481;51.332;22.804;2024-01-07T15:00:15;99522.50;;;-8.99;87.25
77410;BME280;66481;51.332;22.804;2024-01-07T15:04:16;99531.03;;;-9.04;86.67
77410;BME280;66481;51.332;22.804;2024-01-07T15:08:18;99523.34;;;-9.03;86.12
77410;BME280;66481;51.332;22.804;2024-01-07T15:12:19;99523.34;;;-9.03;85.28
77410;BME280;66481;51.332;22.804;2024-01-07T15:16:26;99502.84;;;-9.04;85.07
77410;BME280;66481;51.332;22.804;2024-01-07T15:20:27;99499.41;;;-9.10;84.82
77410;BME280;66481;51.332;22.804;2024-01-07T15:24:29;99490.88;;;-9.04;83.65
77410;BME280;66481;51.332;22.804;2024-01-07T15:28:31;99512.22;;;-9.02;82.96
77410;BME280;66481;51.332;22.804;2024-01-07T15:32:32;99515.66;;;-9.04;83.01
77410;BME280;66481;51.332;22.804;2024-01-07T15:36:34;99519.91;;;-9.10;83.08
77410;BME280;66481;51.332;22.804;2024-01-07T15:40:38;99531.00;;;-9.09;82.21
77410;BME280;66481;51.332;22.804;2024-01-07T15:44:40;99517.31;;;-9.17;82.07
77410;BME280;66481;51.332;22.804;2024-01-07T15:48:43;99521.56;;;-9.21;82.39
77410;BME280;66481;51.332;22.804;2024-01-07T15:52:45;99542.13;;;-9.07;81.58
77410;BME280;66481;51.332;22.804;2024-01-07T15:56:49;99541.25;;;-9.09;81.48
77410;BME280;66481;51.332;22.804;2024-01-07T16:00:51;99519.84;;;-9.27;81.33
77410;BME280;66481;51.332;22.804;2024-01-07T16:04:53;99554.06;;;-9.14;82.30
77410;BME280;66481;51.332;22.804;2024-01-07T16:09:00;99568.63;;;-9.08;83.27
77410;BME280;66481;51.332;22.804;2024-01-07T16:13:03;99553.19;;;-9.20;81.46
77410;BME280;66481;51.332;22.804;2024-01-07T16:17:05;99558.28;;;-9.28;81.07
77410;BME280;66481;51.332;22.804;2024-01-07T16:21:06;99551.47;;;-9.31;82.33
77410;BME280;66481;51.332;22.804;2024-01-07T16:25:08;99571.94;;;-9.32;81.66
77410;BME280;66481;51.332;22.804;2024-01-07T16:29:09;99582.22;;;-9.21;81.84
77410;BME280;66481;51.332;22.804;2024-01-07T16:33:11;99572.78;;;-9.32;81.46
77410;BME280;66481;51.332;22.804;2024-01-07T16:37:13;99572.75;;;-9.38;82.02
77410;BME280;66481;51.332;22.804;2024-01-07T16:41:20;99595.78;;;-9.42;81.93
77410;BME280;66481;51.332;22.804;2024-01-07T16:45:25;99605.16;;;-9.41;82.97
77410;BME280;66481;51.332;22.804;2024-01-07T16:49:27;99601.75;;;-9.43;82.37
77410;BME280;66481;51.332;22.804;2024-01-07T16:53:31;99600.78;;;-9.64;81.91
77410;BME280;66481;51.332;22.804;2024-01-07T16:57:33;99604.19;;;-9.67;82.51
77410;BME280;66481;51.332;22.804;2024-01-07T17:01:34;99616.16;;;-9.62;82.36
77410;BME280;66481;51.332;22.804;2024-01-07T17:05:36;99614.47;;;-9.60;81.96
77410;BME280;66481;51.332;22.804;2024-01-07T17:09:38;99626.38;;;-9.69;82.44
77410;BME280;66481;51.332;22.804;2024-01-07T17:13:41;99608.44;;;-9.72;82.75
77410;BME280;66481;51.332;22.804;2024-01-07T17:17:45;99615.22;;;-9.77;82.81
77410;BME280;66481;51.332;22.804;2024-01-07T17:21:50;99623.72;;;-9.81;82.74
77410;BME280;66481;51.332;22.804;2024-01-07T17:25:53;99626.31;;;-9.76;82.93
77410;BME280;66481;51.332;22.804;2024-01-07T17:29:55;99647.66;;;-9.74;82.02
77410;BME280;66481;51.332;22.804;2024-01-07T17:33:57;99645.06;;;-9.79;83.14
77410;BME280;66481;51.332;22.804;2024-01-07T17:37:59;99659.63;;;-9.72;83.71
77410;BME280;66481;51.332;22.804;2024-01-07T17:42:00;99642.50;;;-9.82;82.26
77410;BME280;66481;51.332;22.804;2024-01-07T17:46:08;99636.47;;;-9.87;81.67
77410;BME280;66481;51.332;22.804;2024-01-07T17:50:10;99647.56;;;-9.87;82.02
77410;BME280;66481;51.332;22.804;2024-01-07T17:54:12;99658.66;;;-9.85;81.88
77410;BME280;66481;51.332;22.804;2024-01-07T17:58:14;99648.31;;;-10.02;82.24
77410;BME280;66481;51.332;22.804;2024-01-07T18:02:17;99657.63;;;-10.10;80.99
77410;BME280;66481;51.332;22.804;2024-01-07T18:06:19;99641.47;;;-10.04;81.79
77410;BME280;66481;51.332;22.804;2024-01-07T18:10:20;99654.25;;;-10.03;82.06
77410;BME280;66481;51.332;22.804;2024-01-07T18:14:21;99667.94;;;-10.00;81.40
77410;BME280;66481;51.332;22.804;2024-01-07T18:18:24;99669.63;;;-10.01;80.49
77410;BME280;66481;51.332;22.804;2024-01-07T18:22:29;99646.53;;;-10.09;81.15
77410;BME280;66481;51.332;22.804;2024-01-07T18:26:31;99664.44;;;-10.10;81.93
77410;BME280;66481;51.332;22.804;2024-01-07T18:30:32;99673.78;;;-10.12;81.11
77410;BME280;66481;51.332;22.804;2024-01-07T18:34:35;99661.78;;;-10.21;81.47
77410;BME280;66481;51.332;22.804;2024-01-07T18:38:38;99676.38;;;-10.11;80.64
77410;BME280;66481;51.332;22.804;2024-01-07T18:42:41;99668.66;;;-10.17;81.66
77410;BME280;66481;51.332;22.804;2024-01-07T18:46:44;99680.63;;;-10.11;80.89
77410;BME280;66481;51.332;22.804;2024-01-07T18:50:46;99678.00;;;-10.19;81.76
77410;BME280;66481;51.332;22.804;2024-01-07T18:54:50;99665.16;;;-10.25;80.03
77410;BME280;66481;51.332;22.804;2024-01-07T18:58:52;99679.69;;;-10.21;79.96
77410;BME280;66481;51.332;22.804;2024-01-07T19:02:54;99687.34;;;-10.21;80.71
77410;BME280;66481;51.332;22.804;2024-01-07T19:06:58;99683.94;;;-10.23;80.08
77410;BME280;66481;51.332;22.804;2024-01-07T19:11:01;99684.88;;;-10.15;80.02
77410;BME280;66481;51.332;22.804;2024-01-07T19:15:03;99695.06;;;-10.18;79.66
77410;BME280;66481;51.332;22.804;2024-01-07T19:19:04;99710.53;;;-10.04;80.17
77410;BME280;66481;51.332;22.804;2024-01-07T19:23:06;99711.41;;;-10.02;80.15
77410;BME280;66481;51.332;22.804;2024-01-07T19:27:07;99704.59;;;-10.03;79.99
77410;BME280;66481;51.332;22.804;2024-01-07T19:31:09;99713.06;;;-10.07;79.95
77410;BME280;66481;51.332;22.804;2024-01-07T19:35:10;99729.25;;;-10.10;80.98
77410;BME280;66481;51.332;22.804;2024-01-07T19:39:12;99743.81;;;-10.03;81.54
77410;BME280;66481;51.332;22.804;2024-01-07T19:43:14;99729.31;;;-10.05;81.78
77410;BME280;66481;51.332;22.804;2024-01-07T19:47:16;99722.38;;;-10.14;81.09
77410;BME280;66481;51.332;22.804;2024-01-07T19:51:19;99731.84;;;-10.07;79.69
77410;BME280;66481;51.332;22.804;2024-01-07T19:55:23;99739.53;;;-10.07;79.79
77410;BME280;66481;51.332;22.804;2024-01-07T19:59:25;99726.75;;;-10.07;81.05
77410;BME280;66481;51.332;22.804;2024-01-07T20:03:28;99701.06;;;-10.13;80.35
77410;BME280;66481;51.332;22.804;2024-01-07T20:07:34;99728.34;;;-10.16;80.07
77410;BME280;66481;51.332;22.804;2024-01-07T20:11:38;99744.63;;;-10.08;81.15
77410;BME280;66481;51.332;22.804;2024-01-07T20:15:39;99748.97;;;-9.99;81.65
77410;BME280;66481;51.332;22.804;2024-01-07T20:19:45;99752.38;;;-9.99;80.36
77410;BME280;66481;51.332;22.804;2024-01-07T20:23:52;99749.78;;;-10.02;81.53
77410;BME280;66481;51.332;22.804;2024-01-07T20:27:59;99772.06;;;-9.96;82.08
77410;BME280;66481;51.332;22.804;2024-01-07T20:32:04;99759.16;;;-10.04;81.89
77410;BME280;66481;51.332;22.804;2024-01-07T20:36:06;99762.53;;;-10.10;80.68
77410;BME280;66481;51.332;22.804;2024-01-07T20:40:10;99777.97;;;-10.00;81.68
77410;BME280;66481;51.332;22.804;2024-01-07T20:44:13;99774.50;;;-10.04;80.56
77410;BME280;66481;51.332;22.804;2024-01-07T20:48:14;99764.25;;;-10.07;81.41
77410;BME280;66481;51.332;22.804;2024-01-07T20:52:20;99763.31;;;-10.17;82.03
77410;BME280;66481;51.332;22.804;2024-01-07T20:56:22;99770.97;;;-10.18;81.26
77410;BME280;66481;51.332;22.804;2024-01-07T21:00:24;99769.28;;;-10.16;81.24
77410;BME280;66481;51.332;22.804;2024-01-07T21:04:26;99784.53;;;-10.23;81.65